Bitflower — SBJE — position and weather

sailwx.info

Track history (hours):
 
Tides and Currents Weather Stations Pressure Air Temp Water Temp Dewpoint Dewpoint Depression Visibility Wind Speed Wind Dir Waves Ship Positions

Bitflower

Last reported at 2018-Apr-15 15:57 UTC. Time now 2018-Apr-21 02:19 UTC.
Position N 60°16' E 025°32'.

Length 116 m; draft 6.5 m.

Type: Ship. MMSI: 266009000.

Date/timePositionNaut miles runAvg speedWind from/ knotsBaromVisibWave heightAir tempDewpointWater temp
2018-Apr-15 15:57N 60°16' E 025°32'  
2018-Apr-11 11:42N 60°06' E 025°35'411.8
2018-Apr-11 11:21N 60°02' E 025°34'5 7.5
2018-Apr-11 10:43N 59°59' E 025°27'4 7.7
2018-Apr-11 10:15N 59°57' E 025°20'3 7.5
2018-Apr-11 09:54N 59°56' E 025°15'3 7.4
2018-Apr-11 09:30N 59°55' E 025°09'4 7.7
2018-Apr-11 09:00N 59°54' E 025°02'510.5
2018-Apr-11 08:30N 59°53' E 024°52'611.8
2018-Apr-11 08:00N 59°51' E 024°41'611.9
2018-Apr-11 07:30N 59°50' E 024°29'611.9
2018-Apr-11 07:00N 59°48' E 024°18'611.9
2018-Apr-11 06:30N 59°47' E 024°07'611.8
2018-Apr-11 06:00N 59°45' E 023°55'611.8
2018-Apr-11 05:30N 59°43' E 023°44'611.7
2018-Apr-11 05:00N 59°42' E 023°33'611.6
2018-Apr-11 04:30N 59°41' E 023°22'611.6
2018-Apr-11 04:00N 59°40' E 023°10'611.6
2018-Apr-11 03:30N 59°40' E 022°59'1811.4
2018-Apr-11 01:55N 59°37' E 022°23'511.4
2018-Apr-11 01:27N 59°37' E 022°13'511.4
2018-Apr-11 01:01N 59°36' E 022°03'611.4
2018-Apr-11 00:29N 59°35' E 021°51'511.4
2018-Apr-11 00:00N 59°35' E 021°41'611.5
2018-Apr-10 23:31N 59°36' E 021°30'611.1
2018-Apr-10 23:00N 59°40' E 021°22'611.6
2018-Apr-10 22:31N 59°46' E 021°21'611.0
2018-Apr-10 22:00N 59°51' E 021°25'612.8
2018-Apr-10 21:30N 59°55' E 021°35'612.2
2018-Apr-10 21:00N 59°60' E 021°42'612.7
2018-Apr-10 20:30N 60°06' E 021°42'611.7
2018-Apr-10 20:00N 60°12' E 021°42'611.8
2018-Apr-10 19:30N 60°15' E 021°52'11 0.6
2018-Apr-10 02:06N 60°06' E 021°42'413.5
2018-Apr-10 01:50N 60°03' E 021°41'513.1
2018-Apr-10 01:28N 59°58' E 021°41'612.8
2018-Apr-10 01:00N 59°54' E 021°33'612.9
2018-Apr-10 00:30N 59°50' E 021°22'611.1
2018-Apr-10 00:00N 59°44' E 021°20'5 9.5
2018-Apr-09 23:31N 59°40' E 021°22'4 8.5
2018-Apr-09 23:00N 59°36' E 021°26'5 9.3
2018-Apr-09 22:30N 59°36' E 021°35'5 9.7
2018-Apr-09 22:01N 59°36' E 021°45'5 9.7
2018-Apr-09 21:30N 59°36' E 021°55'5 9.8
2018-Apr-09 21:01N 59°37' E 022°04'510.0
2018-Apr-09 20:31N 59°37' E 022°14'2310.1
2018-Apr-09 18:13N 59°40' E 022°59'310.3
2018-Apr-09 17:54N 59°40' E 023°06'410.2
2018-Apr-09 17:31N 59°41' E 023°14'510.2
2018-Apr-09 17:00N 59°41' E 023°24'510.2
2018-Apr-09 16:31N 59°42' E 023°34'510.7
2018-Apr-09 16:00N 59°43' E 023°44'510.9
2018-Apr-09 15:31N 59°45' E 023°54'611.1
2018-Apr-09 14:56N 59°47' E 024°06'611.1
2018-Apr-09 14:24N 59°48' E 024°18'411.2
2018-Apr-09 14:00N 59°49' E 024°26'611.2
2018-Apr-09 13:30N 59°51' E 024°37'611.2
2018-Apr-09 13:00N 59°52' E 024°48'711.1
2018-Apr-09 12:22N 59°54' E 025°01'411.1
2018-Apr-09 12:00N 59°55' E 025°09'611.2
2018-Apr-09 11:30N 59°57' E 025°20'711.3
2018-Apr-09 10:54N 59°60' E 025°32'  
Track history (hours):
 
Tides and Currents Weather Stations Pressure Air Temp Water Temp Dewpoint Dewpoint Depression Visibility Wind Speed Wind Dir Waves Ship Positions

Bitflower

Last reported at 2018-Apr-15 15:57 UTC. Time now 2018-Apr-21 02:19 UTC.
Position N 60°16' E 025°32'.

Length 116 m; draft 6.5 m.

Type: Ship. MMSI: 266009000.

Date/timePositionNaut miles runAvg speedWind from/ knotsBaromVisibWave heightAir tempDewpointWater temp
2018-Apr-15 15:57N 60°16' E 025°32'  
2018-Apr-11 11:42N 60°06' E 025°35'411.8
2018-Apr-11 11:21N 60°02' E 025°34'5 7.5
2018-Apr-11 10:43N 59°59' E 025°27'4 7.7
2018-Apr-11 10:15N 59°57' E 025°20'3 7.5
2018-Apr-11 09:54N 59°56' E 025°15'3 7.4
2018-Apr-11 09:30N 59°55' E 025°09'4 7.7
2018-Apr-11 09:00N 59°54' E 025°02'510.5
2018-Apr-11 08:30N 59°53' E 024°52'611.8
2018-Apr-11 08:00N 59°51' E 024°41'611.9
2018-Apr-11 07:30N 59°50' E 024°29'611.9
2018-Apr-11 07:00N 59°48' E 024°18'611.9
2018-Apr-11 06:30N 59°47' E 024°07'611.8
2018-Apr-11 06:00N 59°45' E 023°55'611.8
2018-Apr-11 05:30N 59°43' E 023°44'611.7
2018-Apr-11 05:00N 59°42' E 023°33'611.6
2018-Apr-11 04:30N 59°41' E 023°22'611.6
2018-Apr-11 04:00N 59°40' E 023°10'611.6
2018-Apr-11 03:30N 59°40' E 022°59'1811.4
2018-Apr-11 01:55N 59°37' E 022°23'511.4
2018-Apr-11 01:27N 59°37' E 022°13'511.4
2018-Apr-11 01:01N 59°36' E 022°03'611.4
2018-Apr-11 00:29N 59°35' E 021°51'511.4
2018-Apr-11 00:00N 59°35' E 021°41'611.5
2018-Apr-10 23:31N 59°36' E 021°30'611.1
2018-Apr-10 23:00N 59°40' E 021°22'611.6
2018-Apr-10 22:31N 59°46' E 021°21'611.0
2018-Apr-10 22:00N 59°51' E 021°25'612.8
2018-Apr-10 21:30N 59°55' E 021°35'612.2
2018-Apr-10 21:00N 59°60' E 021°42'612.7
2018-Apr-10 20:30N 60°06' E 021°42'611.7
2018-Apr-10 20:00N 60°12' E 021°42'611.8
2018-Apr-10 19:30N 60°15' E 021°52'11 0.6
2018-Apr-10 02:06N 60°06' E 021°42'413.5
2018-Apr-10 01:50N 60°03' E 021°41'513.1
2018-Apr-10 01:28N 59°58' E 021°41'612.8
2018-Apr-10 01:00N 59°54' E 021°33'612.9
2018-Apr-10 00:30N 59°50' E 021°22'611.1
2018-Apr-10 00:00N 59°44' E 021°20'5 9.5
2018-Apr-09 23:31N 59°40' E 021°22'4 8.5
2018-Apr-09 23:00N 59°36' E 021°26'5 9.3
2018-Apr-09 22:30N 59°36' E 021°35'5 9.7
2018-Apr-09 22:01N 59°36' E 021°45'5 9.7
2018-Apr-09 21:30N 59°36' E 021°55'5 9.8
2018-Apr-09 21:01N 59°37' E 022°04'510.0
2018-Apr-09 20:31N 59°37' E 022°14'2310.1
2018-Apr-09 18:13N 59°40' E 022°59'310.3
2018-Apr-09 17:54N 59°40' E 023°06'410.2
2018-Apr-09 17:31N 59°41' E 023°14'510.2
2018-Apr-09 17:00N 59°41' E 023°24'510.2
2018-Apr-09 16:31N 59°42' E 023°34'510.7
2018-Apr-09 16:00N 59°43' E 023°44'510.9
2018-Apr-09 15:31N 59°45' E 023°54'611.1
2018-Apr-09 14:56N 59°47' E 024°06'611.1
2018-Apr-09 14:24N 59°48' E 024°18'411.2
2018-Apr-09 14:00N 59°49' E 024°26'611.2
2018-Apr-09 13:30N 59°51' E 024°37'611.2
2018-Apr-09 13:00N 59°52' E 024°48'711.1
2018-Apr-09 12:22N 59°54' E 025°01'411.1
2018-Apr-09 12:00N 59°55' E 025°09'611.2
2018-Apr-09 11:30N 59°57' E 025°20'711.3
2018-Apr-09 10:54N 59°60' E 025°32'  

Dump ship's entire track history